• Join FlightAware (Why Join?)
  • Login
  • US Flag 
10:55PM EDT


 

Airport Tracker/Info


-or-


 

Live Flight TrackerFlight Track Log ✈ N25CX ✈ 18-May-2013 ✈ KLBT - KTTA

Flight Track Log - Related Links

Times and Time Zones

All times are in EDT time to prevent confusion due to time zone crossing. See the N25CX flight status page for this flight to view local times or setup timezone preferences in your user account.

Time Position Orientation Groundspeed Altitude Reporting Facility
EDT Latitude Longitude Course Direction KTS MPH feet Rate Location/Type
01:23PM 34.8522 -79.0687 358° North  Level FlightAware Approximate
01:24PM 34.9031 -79.0706 358° North  Level FlightAware Approximate
01:25PM 34.9541 -79.0726 358° North  Level FlightAware Approximate
01:26PM 35.0051 -79.0745 358° North  Level FlightAware Approximate
01:27PM 35.0560 -79.0765 358° North  Level FlightAware Approximate
01:28PM 35.1070 -79.0785 358° North  Level FlightAware Approximate
01:29PM 35.1579 -79.0804 358° North  Level FlightAware Approximate
01:30PM 35.2089 -79.0824 358° North  Level FlightAware Approximate
01:31PM 35.2598 -79.0833 North  Level FlightAware Approximate
01:32PM 35.3108 -79.0833 360° North  Level FlightAware Approximate
01:32PM 35.3289 -79.0086 345° North 179 206 4,100  Level Washington Center
01:33PM 35.3618 -79.0833 360° North  Level FlightAware Approximate
01:34PM 35.4128 -79.0833 360° North  Level FlightAware Approximate
01:34PM 35.3952 -79.0350 342° North  Level FlightAware Approximate
01:35PM 35.4638 -79.0833 360° North  Level FlightAware Approximate
01:36PM 35.5148 -79.0833 360° North  Level FlightAware Approximate
01:37PM 35.5640 -79.0991 345° North  Level FlightAware Approximate
01:38PM 35.5667 -79.1000 345° North  Level FlightAware Approximate
01:41PM 35.5667 -79.1000 345° North  Level FlightAware Approximate
01:42PM 35.5824 -79.1013 345° North  Level Estimated
01:43PM 35.5824 -79.1013 345° North  Level Estimated